createdAt,value
2022-09-01T00:02:52.919Z,17.10
2022-09-01T00:07:54.921Z,17.60
2022-09-01T00:12:56.805Z,14.10
2022-09-01T00:17:58.677Z,19.20
2022-09-01T00:23:00.868Z,22.90
2022-09-01T00:28:04.991Z,21.30
2022-09-01T00:33:07.014Z,16.10
2022-09-01T00:38:09.185Z,14.00
2022-09-01T00:43:12.266Z,18.70
2022-09-01T00:48:16.175Z,16.00
2022-09-01T00:53:18.358Z,17.40
2022-09-01T00:58:20.699Z,18.30
2022-09-01T01:03:24.178Z,18.00
2022-09-01T01:08:34.296Z,22.90
2022-09-01T01:13:55.966Z,21.90
2022-09-01T01:18:58.176Z,19.50
2022-09-01T01:24:19.598Z,23.70
2022-09-01T01:29:22.206Z,21.80
2022-09-01T01:34:26.337Z,18.50
2022-09-01T01:39:28.951Z,21.80
2022-09-01T01:44:31.152Z,23.30
2022-09-01T01:49:36.881Z,27.10
2022-09-01T01:54:39.273Z,25.80
2022-09-01T01:59:41.459Z,28.20
2022-09-01T02:04:43.668Z,25.90
2022-09-01T02:09:48.395Z,18.80
2022-09-01T02:14:50.980Z,25.40
2022-09-01T02:19:57.666Z,25.10
2022-09-01T02:25:01.186Z,24.60
2022-09-01T02:30:04.406Z,20.30
2022-09-01T02:35:10.260Z,21.80
2022-09-01T02:40:12.186Z,18.20
2022-09-01T02:45:16.576Z,18.50
2022-09-01T02:50:20.403Z,18.00
2022-09-01T02:55:23.093Z,18.60
2022-09-01T03:00:31.709Z,11.90
2022-09-01T03:05:34.667Z,11.60
2022-09-01T03:10:38.046Z,12.90
2022-09-01T03:15:40.886Z,8.00
2022-09-01T03:20:53.106Z,12.80
2022-09-01T03:25:55.353Z,12.60
2022-09-01T03:30:58.869Z,10.30
2022-09-01T03:36:01.771Z,16.90
2022-09-01T03:41:05.224Z,14.50
2022-09-01T03:46:10.187Z,19.10
2022-09-01T03:51:14.497Z,19.30
2022-09-01T03:56:16.754Z,27.00
2022-09-01T04:01:41.775Z,19.60
2022-09-01T04:06:45.292Z,17.20
2022-09-01T04:11:48.708Z,21.40
2022-09-01T04:17:10.225Z,19.40
2022-09-01T04:22:17.855Z,23.10
2022-09-01T04:27:21.986Z,16.60
2022-09-01T04:32:26.117Z,19.00
2022-09-01T04:37:30.451Z,18.70
2022-09-01T04:42:35.845Z,18.10
2022-09-01T04:47:42.167Z,14.70
2022-09-01T04:52:46.731Z,15.90
2022-09-01T04:58:01.107Z,14.20
2022-09-01T05:03:04.980Z,13.80
2022-09-01T05:08:29.039Z,10.10
2022-09-01T05:13:39.092Z,12.30
2022-09-01T05:18:45.276Z,14.00
2022-09-01T05:23:52.000Z,9.40
2022-09-01T05:28:56.638Z,10.50
2022-09-01T05:33:58.789Z,11.80
2022-09-01T05:39:01.960Z,8.40
2022-09-01T05:44:08.271Z,11.80
2022-09-01T05:49:13.731Z,13.70
2022-09-01T05:54:27.453Z,11.30
2022-09-01T05:59:34.248Z,12.80
2022-09-01T06:04:44.347Z,16.20
2022-09-01T06:09:50.941Z,13.00
2022-09-01T06:14:55.593Z,17.30
2022-09-01T06:20:05.454Z,12.70
2022-09-01T06:25:22.367Z,14.70
2022-09-01T06:30:26.723Z,15.50
2022-09-01T06:36:02.478Z,19.30
2022-09-01T06:41:06.110Z,23.60
2022-09-01T06:46:09.997Z,62.00
2022-09-01T06:51:16.602Z,11.50
2022-09-01T06:56:20.463Z,45.80
2022-09-01T07:01:24.235Z,15.40
2022-09-01T07:12:24.867Z,17.40
2022-09-01T07:17:23.600Z,15.20
2022-09-01T07:27:51.758Z,10.50
2022-09-01T07:33:41.580Z,16.10
2022-09-01T07:38:49.758Z,15.90
2022-09-01T07:44:03.374Z,10.90
2022-09-01T07:49:51.336Z,18.90
2022-09-01T07:54:47.254Z,16.70
2022-09-01T07:59:54.040Z,3.90
2022-09-01T08:05:07.503Z,5.10
2022-09-01T08:10:20.179Z,5.90
2022-09-01T08:15:41.300Z,6.00
2022-09-01T08:20:52.812Z,4.50
2022-09-01T08:26:18.779Z,11.80
2022-09-01T08:31:21.361Z,3.90
2022-09-01T08:36:25.018Z,6.40
2022-09-01T08:42:06.859Z,7.40
2022-09-01T08:47:15.281Z,9.30
2022-09-01T08:52:35.435Z,7.10
2022-09-01T08:57:41.203Z,6.20
2022-09-01T09:03:15.565Z,3.10
2022-09-01T09:08:17.385Z,3.10
2022-09-01T09:13:25.251Z,4.60
2022-09-01T09:18:54.531Z,6.80
2022-09-01T09:24:21.737Z,5.50
2022-09-01T09:29:25.499Z,2.60
2022-09-01T09:34:27.828Z,3.90
2022-09-01T09:39:49.475Z,2.10
2022-09-01T09:44:53.107Z,4.90
2022-09-01T09:50:12.303Z,5.20
2022-09-01T09:55:23.100Z,1.50
2022-09-01T10:00:29.517Z,5.00
2022-09-01T10:05:43.206Z,2.10
2022-09-01T10:10:56.456Z,3.70
2022-09-01T10:16:03.702Z,3.30
2022-09-01T10:21:16.440Z,2.70
2022-09-01T10:26:27.842Z,4.20
2022-09-01T10:31:37.358Z,4.20
2022-09-01T10:36:41.811Z,5.70
2022-09-01T10:41:44.935Z,6.80
2022-09-01T10:46:51.023Z,6.80
2022-09-01T10:57:08.583Z,4.10
2022-09-01T11:02:28.709Z,6.40
2022-09-01T11:08:00.201Z,3.10
2022-09-01T11:13:02.670Z,5.80
2022-09-01T11:18:09.525Z,1.60
2022-09-01T11:23:22.788Z,4.50
2022-09-01T11:28:51.491Z,4.40
2022-09-01T11:34:20.188Z,2.00
2022-09-01T11:39:33.155Z,1.20
2022-09-01T11:44:54.080Z,2.10
2022-09-01T11:50:04.735Z,2.50
2022-09-01T11:55:28.945Z,13.10
2022-09-01T12:00:32.532Z,6.80
2022-09-01T12:05:36.587Z,3.00
2022-09-01T12:10:39.861Z,3.60
2022-09-01T12:16:06.899Z,2.20
2022-09-01T12:21:19.620Z,7.00
2022-09-01T12:26:29.221Z,2.70
2022-09-01T12:31:31.154Z,1.00
2022-09-01T12:36:35.178Z,1.40
2022-09-01T12:41:39.305Z,4.10
2022-09-01T12:46:43.618Z,2.00
2022-09-01T12:51:48.264Z,3.20
2022-09-01T12:56:51.372Z,2.40
2022-09-01T13:01:53.730Z,4.40
2022-09-01T13:07:02.182Z,1.60
2022-09-01T13:12:11.275Z,3.40
2022-09-01T13:17:14.213Z,8.10
2022-09-01T13:22:17.143Z,5.50
2022-09-01T13:27:20.812Z,2.40
2022-09-01T13:32:24.291Z,3.40
2022-09-01T13:37:26.568Z,2.00
2022-09-01T13:42:28.617Z,5.20
2022-09-01T13:47:31.043Z,2.00
2022-09-01T13:52:33.323Z,1.80
2022-09-01T13:57:35.741Z,1.60
2022-09-01T14:02:43.162Z,4.40
2022-09-01T14:12:47.371Z,3.50
2022-09-01T14:17:52.387Z,2.40
2022-09-01T14:22:55.957Z,3.70
2022-09-01T14:28:20.624Z,3.70
2022-09-01T14:33:29.932Z,2.90
2022-09-01T14:38:31.976Z,3.40
2022-09-01T14:43:33.801Z,3.50
2022-09-01T14:48:36.043Z,3.50
2022-09-01T14:53:37.835Z,1.50
2022-09-01T14:58:40.823Z,7.00
2022-09-01T15:03:43.325Z,3.20
2022-09-01T15:08:45.097Z,1.90
2022-09-01T15:13:46.998Z,4.60
2022-09-01T15:18:48.816Z,1.40
2022-09-01T15:23:51.147Z,5.20
2022-09-01T15:28:54.047Z,4.00
2022-09-01T15:33:56.652Z,2.30
2022-09-01T15:38:59.011Z,3.50
2022-09-01T15:44:02.022Z,3.30
2022-09-01T15:49:19.459Z,3.00
2022-09-01T15:54:25.118Z,1.30
2022-09-01T15:59:30.334Z,5.60
2022-09-01T16:04:32.170Z,2.00
2022-09-01T16:09:54.482Z,1.20
2022-09-01T16:15:14.515Z,3.50
2022-09-01T16:20:24.520Z,5.00
2022-09-01T16:25:29.918Z,3.80
2022-09-01T16:30:31.773Z,5.80
2022-09-01T16:35:53.306Z,7.20
2022-09-01T16:41:04.964Z,5.70
2022-09-01T16:46:32.254Z,6.20
2022-09-01T16:51:42.551Z,5.00
2022-09-01T16:56:58.740Z,5.80
2022-09-01T17:02:03.852Z,4.40
2022-09-01T17:07:06.181Z,8.00
2022-09-01T17:12:17.271Z,4.50
2022-09-01T17:17:20.992Z,9.10
2022-09-01T17:22:24.509Z,14.40
2022-09-01T17:27:32.940Z,8.00
2022-09-01T17:32:39.456Z,6.60
2022-09-01T17:37:51.839Z,7.10
2022-09-01T17:43:09.599Z,5.10
2022-09-01T17:48:27.351Z,11.70
2022-09-01T17:53:29.093Z,9.80
2022-09-01T17:58:43.596Z,11.80
2022-09-01T18:04:06.067Z,11.00
2022-09-01T18:09:15.418Z,9.70
2022-09-01T18:14:21.927Z,12.90
2022-09-01T18:19:39.646Z,10.30
2022-09-01T18:25:18.515Z,9.40
2022-09-01T18:30:36.429Z,10.70
2022-09-01T18:35:56.385Z,10.00
2022-09-01T18:41:01.140Z,9.70
2022-09-01T18:46:15.951Z,9.20
2022-09-01T18:51:40.542Z,11.50
2022-09-01T18:56:57.618Z,12.40
2022-09-01T19:02:03.415Z,13.10
2022-09-01T19:07:14.515Z,10.20
2022-09-01T19:12:36.120Z,13.80
2022-09-01T19:17:46.014Z,12.70
2022-09-01T19:23:01.484Z,11.90
2022-09-01T19:28:07.253Z,11.50
2022-09-01T19:33:11.993Z,16.50
2022-09-01T19:38:17.805Z,12.80
2022-09-01T19:43:21.449Z,10.40
2022-09-01T19:48:29.466Z,12.70
2022-09-01T19:53:37.424Z,11.80
2022-09-01T19:58:44.650Z,13.90
2022-09-01T20:03:58.752Z,13.40
2022-09-01T20:09:06.323Z,15.30
2022-09-01T20:19:22.817Z,17.00
2022-09-01T20:24:30.687Z,14.10
2022-09-01T20:29:43.428Z,11.70
2022-09-01T20:34:53.062Z,9.20
2022-09-01T20:40:08.186Z,15.10
2022-09-01T20:45:15.379Z,9.10
2022-09-01T20:50:19.070Z,13.60
2022-09-01T20:55:23.837Z,9.30
2022-09-01T21:00:27.197Z,14.90
2022-09-01T21:05:57.501Z,12.40
2022-09-01T21:10:59.451Z,14.50
2022-09-01T21:16:28.623Z,13.20
2022-09-01T21:21:45.089Z,13.00
2022-09-01T21:26:49.043Z,9.50
2022-09-01T21:31:51.303Z,14.20
2022-09-01T21:36:53.620Z,19.60
2022-09-01T21:41:57.844Z,13.90
2022-09-01T21:47:00.615Z,14.70
2022-09-01T21:52:02.801Z,9.80
2022-09-01T21:57:04.919Z,12.80
2022-09-01T22:02:15.480Z,14.50
2022-09-01T22:07:30.465Z,17.30
2022-09-01T22:12:47.172Z,20.60
2022-09-01T22:17:49.961Z,15.70
2022-09-01T22:22:51.776Z,11.80
2022-09-01T22:27:53.932Z,14.30
2022-09-01T22:32:55.916Z,16.20
2022-09-01T22:37:57.788Z,16.40
2022-09-01T22:42:59.974Z,15.30
2022-09-01T22:48:02.160Z,15.20
2022-09-01T22:53:04.136Z,12.90
2022-09-01T22:58:07.142Z,14.20
2022-09-01T23:03:09.429Z,14.20
2022-09-01T23:08:11.315Z,10.60
2022-09-01T23:13:17.451Z,10.20
2022-09-01T23:18:19.394Z,11.50
2022-09-01T23:23:21.262Z,12.40
2022-09-01T23:28:23.834Z,11.30
2022-09-01T23:33:26.983Z,11.30
2022-09-01T23:38:31.952Z,10.40
2022-09-01T23:43:34.228Z,8.60
2022-09-01T23:48:36.157Z,8.10
2022-09-01T23:53:38.835Z,10.30
2022-09-01T23:58:40.730Z,6.80
